createdAt,value
2022-09-02T00:00:22.419Z,1013.41
2022-09-02T00:01:21.410Z,1013.41
2022-09-02T00:02:21.640Z,1013.46
2022-09-02T00:03:21.617Z,1013.43
2022-09-02T00:04:21.376Z,1013.42
2022-09-02T00:05:21.369Z,1013.41
2022-09-02T00:06:21.365Z,1013.42
2022-09-02T00:07:21.346Z,1013.44
2022-09-02T00:08:21.337Z,1013.45
2022-09-02T00:09:21.306Z,1013.45
2022-09-02T00:10:21.305Z,1013.39
2022-09-02T00:11:21.271Z,1013.38
2022-09-02T00:12:21.282Z,1013.36
2022-09-02T00:13:21.372Z,1013.38
2022-09-02T00:14:21.269Z,1013.40
2022-09-02T00:15:21.254Z,1013.38
2022-09-02T00:16:21.246Z,1013.36
2022-09-02T00:17:21.239Z,1013.33
2022-09-02T00:18:21.206Z,1013.33
2022-09-02T00:19:21.193Z,1013.34
2022-09-02T00:20:21.175Z,1013.32
2022-09-02T00:21:21.141Z,1013.30
2022-09-02T00:22:21.184Z,1013.32
2022-09-02T00:23:21.207Z,1013.29
2022-09-02T00:24:21.126Z,1013.37
2022-09-02T00:25:21.119Z,1013.32
2022-09-02T00:26:21.105Z,1013.37
2022-09-02T00:27:21.095Z,1013.32
2022-09-02T00:28:21.067Z,1013.29
2022-09-02T00:29:21.055Z,1013.27
2022-09-02T00:30:21.055Z,1013.32
2022-09-02T00:31:21.036Z,1013.26
2022-09-02T00:32:21.028Z,1013.23
2022-09-02T00:33:21.143Z,1013.23
2022-09-02T00:34:21.022Z,1013.23
2022-09-02T00:35:20.963Z,1013.21
2022-09-02T00:36:20.965Z,1013.20
2022-09-02T00:37:20.972Z,1013.19
2022-09-02T00:38:20.929Z,1013.28
2022-09-02T00:39:20.910Z,1013.24
2022-09-02T00:40:20.938Z,1013.23
2022-09-02T00:41:20.905Z,1013.25
2022-09-02T00:42:20.904Z,1013.28
2022-09-02T00:43:20.996Z,1013.17
2022-09-02T00:44:20.863Z,1013.20
2022-09-02T00:45:20.894Z,1013.23
2022-09-02T00:46:20.820Z,1013.22
2022-09-02T00:47:20.848Z,1013.25
2022-09-02T00:48:20.811Z,1013.18
2022-09-02T00:49:20.815Z,1013.20
2022-09-02T00:50:20.774Z,1013.23
2022-09-02T00:51:20.771Z,1013.20
2022-09-02T00:52:20.743Z,1013.24
2022-09-02T00:53:20.919Z,1013.21
2022-09-02T00:54:20.723Z,1013.20
2022-09-02T00:55:20.699Z,1013.19
2022-09-02T00:56:20.717Z,1013.21
2022-09-02T00:57:20.672Z,1013.21
2022-09-02T00:58:20.687Z,1013.17
2022-09-02T00:59:20.663Z,1013.20
2022-09-02T01:00:20.655Z,1013.17
2022-09-02T01:01:20.738Z,1013.19
2022-09-02T01:02:20.744Z,1013.13
2022-09-02T01:03:20.629Z,1013.12
2022-09-02T01:04:20.593Z,1013.18
2022-09-02T01:05:20.597Z,1013.19
2022-09-02T01:06:20.562Z,1013.17
2022-09-02T01:07:20.539Z,1013.20
2022-09-02T01:08:20.551Z,1013.16
2022-09-02T01:09:20.547Z,1013.15
2022-09-02T01:10:20.499Z,1013.19
2022-09-02T01:11:20.489Z,1013.14
2022-09-02T01:12:20.508Z,1013.21
2022-09-02T01:13:20.480Z,1013.14
2022-09-02T01:14:20.449Z,1013.12
2022-09-02T01:15:20.454Z,1013.10
2022-09-02T01:16:20.512Z,1013.13
2022-09-02T01:17:20.433Z,1013.18
2022-09-02T01:18:20.431Z,1013.14
2022-09-02T01:19:20.412Z,1013.16
2022-09-02T01:20:20.389Z,1013.18
2022-09-02T01:21:20.359Z,1013.12
2022-09-02T01:22:20.366Z,1013.12
2022-09-02T01:23:20.370Z,1013.18
2022-09-02T01:24:20.330Z,1013.10
2022-09-02T01:25:20.320Z,1013.16
2022-09-02T01:26:20.292Z,1013.14
2022-09-02T01:27:20.291Z,1013.12
2022-09-02T01:28:20.276Z,1013.13
2022-09-02T01:29:20.270Z,1013.19
2022-09-02T01:30:20.236Z,1013.12
2022-09-02T01:31:20.302Z,1013.08
2022-09-02T01:32:20.219Z,1013.10
2022-09-02T01:33:20.219Z,1013.07
2022-09-02T01:34:20.211Z,1013.10
2022-09-02T01:35:20.177Z,1013.03
2022-09-02T01:36:20.159Z,1013.03
2022-09-02T01:37:20.167Z,1013.03
2022-09-02T01:38:20.142Z,1013.07
2022-09-02T01:39:20.120Z,1013.03
2022-09-02T01:40:20.179Z,1013.08
2022-09-02T01:41:20.121Z,1013.04
2022-09-02T01:42:20.091Z,1013.06
2022-09-02T01:43:20.158Z,1013.08
2022-09-02T01:44:20.075Z,1013.08
2022-09-02T01:45:20.049Z,1012.98
2022-09-02T01:46:20.062Z,1013.00
2022-09-02T01:47:20.049Z,1013.00
2022-09-02T01:48:21.667Z,1012.97
2022-09-02T01:49:20.000Z,1012.99
2022-09-02T01:50:19.988Z,1012.97
2022-09-02T01:51:20.005Z,1012.95
2022-09-02T01:52:19.963Z,1012.97
2022-09-02T01:53:20.000Z,1012.97
2022-09-02T01:54:19.941Z,1013.02
2022-09-02T01:55:19.934Z,1012.98
2022-09-02T01:56:19.912Z,1013.00
2022-09-02T01:57:19.885Z,1012.99
2022-09-02T01:58:19.900Z,1012.94
2022-09-02T01:59:19.856Z,1012.92
2022-09-02T02:00:19.837Z,1012.93
2022-09-02T02:01:19.893Z,1012.93
2022-09-02T02:02:19.854Z,1012.88
2022-09-02T02:03:19.886Z,1012.91
2022-09-02T02:04:19.788Z,1012.92
2022-09-02T02:05:19.806Z,1012.91
2022-09-02T02:06:19.780Z,1012.90
2022-09-02T02:07:19.770Z,1012.87
2022-09-02T02:08:19.760Z,1012.88
2022-09-02T02:09:19.773Z,1012.91
2022-09-02T02:10:19.739Z,1012.96
2022-09-02T02:11:19.696Z,1012.89
2022-09-02T02:12:19.690Z,1012.96
2022-09-02T02:13:19.799Z,1012.94
2022-09-02T02:14:19.674Z,1012.91
2022-09-02T02:15:19.648Z,1012.93
2022-09-02T02:16:19.700Z,1012.92
2022-09-02T02:17:19.640Z,1012.97
2022-09-02T02:18:19.628Z,1012.96
2022-09-02T02:19:19.608Z,1012.97
2022-09-02T02:20:19.612Z,1012.98
2022-09-02T02:21:20.034Z,1012.98
2022-09-02T02:22:19.555Z,1013.00
2022-09-02T02:23:19.640Z,1012.98
2022-09-02T02:24:19.538Z,1012.99
2022-09-02T02:25:19.529Z,1012.99
2022-09-02T02:26:19.526Z,1013.00
2022-09-02T02:27:19.496Z,1012.96
2022-09-02T02:28:19.495Z,1012.98
2022-09-02T02:29:19.455Z,1013.02
2022-09-02T02:30:19.447Z,1012.96
2022-09-02T02:31:19.497Z,1013.02
2022-09-02T02:32:19.422Z,1012.99
2022-09-02T02:33:19.521Z,1012.95
2022-09-02T02:34:19.408Z,1012.95
2022-09-02T02:35:19.394Z,1012.95
2022-09-02T02:36:19.401Z,1012.96
2022-09-02T02:37:23.405Z,1012.98
2022-09-02T02:38:20.346Z,1012.95
2022-09-02T02:39:19.361Z,1012.96
2022-09-02T02:40:19.384Z,1012.92
2022-09-02T02:41:19.318Z,1012.97
2022-09-02T02:42:19.309Z,1012.95
2022-09-02T02:43:19.299Z,1012.96
2022-09-02T02:44:19.285Z,1012.97
2022-09-02T02:45:19.290Z,1012.95
2022-09-02T02:46:19.341Z,1012.96
2022-09-02T02:47:19.226Z,1012.95
2022-09-02T02:48:19.226Z,1012.94
2022-09-02T02:49:19.237Z,1012.97
2022-09-02T02:50:19.185Z,1013.00
2022-09-02T02:51:19.173Z,1012.95
2022-09-02T02:52:19.168Z,1012.95
2022-09-02T02:53:19.210Z,1012.91
2022-09-02T02:54:19.169Z,1012.94
2022-09-02T02:55:19.137Z,1012.90
2022-09-02T02:56:19.118Z,1012.93
2022-09-02T02:57:19.116Z,1012.88
2022-09-02T02:58:19.107Z,1012.88
2022-09-02T02:59:19.107Z,1012.90
2022-09-02T03:00:19.080Z,1012.91
2022-09-02T03:01:19.156Z,1012.93
2022-09-02T03:02:19.132Z,1012.93
2022-09-02T03:03:19.032Z,1012.92
2022-09-02T03:04:19.004Z,1012.96
2022-09-02T03:05:19.005Z,1012.88
2022-09-02T03:06:21.988Z,1012.90
2022-09-02T03:07:19.974Z,1012.89
2022-09-02T03:08:18.960Z,1012.90
2022-09-02T03:09:18.947Z,1012.85
2022-09-02T03:10:18.934Z,1012.89
2022-09-02T03:11:18.946Z,1012.93
2022-09-02T03:12:18.900Z,1012.92
2022-09-02T03:13:18.893Z,1012.92
2022-09-02T03:14:18.873Z,1012.89
2022-09-02T03:15:18.856Z,1012.93
2022-09-02T03:16:18.904Z,1012.91
2022-09-02T03:17:18.834Z,1012.87
2022-09-02T03:18:18.855Z,1012.87
2022-09-02T03:19:18.804Z,1012.90
2022-09-02T03:20:18.795Z,1012.86
2022-09-02T03:21:18.803Z,1012.89
2022-09-02T03:22:18.760Z,1012.83
2022-09-02T03:23:19.001Z,1012.87
2022-09-02T03:24:18.763Z,1012.91
2022-09-02T03:25:18.747Z,1012.87
2022-09-02T03:26:19.012Z,1012.88
2022-09-02T03:27:18.702Z,1012.86
2022-09-02T03:28:18.706Z,1012.82
2022-09-02T03:29:18.676Z,1012.92
2022-09-02T03:30:18.661Z,1012.86
2022-09-02T03:31:18.719Z,1012.89
2022-09-02T03:32:18.646Z,1012.84
2022-09-02T03:33:18.650Z,1012.87
2022-09-02T03:34:18.623Z,1012.87
2022-09-02T03:35:18.602Z,1012.90
2022-09-02T03:36:18.581Z,1012.92
2022-09-02T03:37:18.582Z,1012.88
2022-09-02T03:38:18.569Z,1012.86
2022-09-02T03:39:18.556Z,1012.86
2022-09-02T03:40:18.653Z,1012.86
2022-09-02T03:41:18.535Z,1012.85
2022-09-02T03:42:19.848Z,1012.90
2022-09-02T03:43:18.576Z,1012.85
2022-09-02T03:44:18.482Z,1012.85
2022-09-02T03:45:18.501Z,1012.84
2022-09-02T03:46:18.565Z,1012.80
2022-09-02T03:47:20.678Z,1012.80
2022-09-02T03:48:18.455Z,1012.84
2022-09-02T03:49:18.434Z,1012.86
2022-09-02T03:50:18.416Z,1012.86
2022-09-02T03:51:18.415Z,1012.73
2022-09-02T03:52:18.395Z,1012.84
2022-09-02T03:53:20.030Z,1012.85
2022-09-02T03:54:18.354Z,1012.80
2022-09-02T03:55:18.353Z,1012.81
2022-09-02T03:56:18.323Z,1012.80
2022-09-02T03:57:18.350Z,1012.83
2022-09-02T03:58:18.332Z,1012.82
2022-09-02T03:59:18.281Z,1012.80
2022-09-02T04:00:18.269Z,1012.80
2022-09-02T04:01:18.328Z,1012.78
2022-09-02T04:02:18.421Z,1012.75
2022-09-02T04:03:18.337Z,1012.75
2022-09-02T04:04:22.637Z,1012.78
2022-09-02T04:05:18.221Z,1012.73
2022-09-02T04:06:18.205Z,1012.75
2022-09-02T04:07:18.193Z,1012.75
2022-09-02T04:08:18.180Z,1012.75
2022-09-02T04:09:18.168Z,1012.75
2022-09-02T04:10:18.163Z,1012.76
2022-09-02T04:11:18.139Z,1012.75
2022-09-02T04:12:18.110Z,1012.73
2022-09-02T04:13:18.180Z,1012.71
2022-09-02T04:14:18.103Z,1012.70
2022-09-02T04:15:18.112Z,1012.74
2022-09-02T04:16:18.109Z,1012.74
2022-09-02T04:17:18.063Z,1012.74
2022-09-02T04:18:18.063Z,1012.69
2022-09-02T04:19:18.043Z,1012.72
2022-09-02T04:20:18.010Z,1012.73
2022-09-02T04:21:18.053Z,1012.76
2022-09-02T04:22:17.980Z,1012.74
2022-09-02T04:23:18.045Z,1012.71
2022-09-02T04:24:17.973Z,1012.76
2022-09-02T04:25:17.962Z,1012.75
2022-09-02T04:26:17.970Z,1012.70
2022-09-02T04:27:17.932Z,1012.79
2022-09-02T04:28:17.939Z,1012.74
2022-09-02T04:29:17.912Z,1012.72
2022-09-02T04:30:17.901Z,1012.73
2022-09-02T04:31:17.905Z,1012.77
2022-09-02T04:32:17.869Z,1012.73
2022-09-02T04:33:17.948Z,1012.69
2022-09-02T04:34:17.827Z,1012.73
2022-09-02T04:35:17.824Z,1012.71
2022-09-02T04:36:17.798Z,1012.74
2022-09-02T04:37:17.801Z,1012.75
2022-09-02T04:38:17.780Z,1012.68
2022-09-02T04:39:17.782Z,1012.68
2022-09-02T04:40:17.821Z,1012.67
2022-09-02T04:41:17.743Z,1012.65
2022-09-02T04:42:17.718Z,1012.70
2022-09-02T04:43:17.782Z,1012.73
2022-09-02T04:44:17.689Z,1012.66
2022-09-02T04:45:17.685Z,1012.70
2022-09-02T04:46:17.717Z,1012.75
2022-09-02T04:47:18.681Z,1012.70
2022-09-02T04:48:17.665Z,1012.73
2022-09-02T04:49:17.654Z,1012.71
2022-09-02T04:50:17.619Z,1012.73
2022-09-02T04:51:17.624Z,1012.68
2022-09-02T04:52:17.611Z,1012.73
2022-09-02T04:53:17.631Z,1012.73
2022-09-02T04:54:17.589Z,1012.73
2022-09-02T04:55:17.572Z,1012.72
2022-09-02T04:56:17.544Z,1012.72
2022-09-02T04:57:17.524Z,1012.78
2022-09-02T04:58:17.540Z,1012.72
2022-09-02T04:59:17.519Z,1012.79
2022-09-02T05:00:17.485Z,1012.71
2022-09-02T05:01:17.497Z,1012.70
2022-09-02T05:02:17.636Z,1012.74
2022-09-02T05:03:17.506Z,1012.68
2022-09-02T05:04:17.450Z,1012.68
2022-09-02T05:05:17.461Z,1012.72
2022-09-02T05:06:17.420Z,1012.77
2022-09-02T05:07:17.398Z,1012.71
2022-09-02T05:08:17.406Z,1012.69
2022-09-02T05:09:17.374Z,1012.72
2022-09-02T05:10:17.353Z,1012.73
2022-09-02T05:11:17.347Z,1012.74
2022-09-02T05:12:17.409Z,1012.71
2022-09-02T05:13:17.431Z,1012.73
2022-09-02T05:14:17.306Z,1012.70
2022-09-02T05:15:17.297Z,1012.69
2022-09-02T05:16:17.313Z,1012.71
2022-09-02T05:17:17.317Z,1012.73
2022-09-02T05:18:17.276Z,1012.70
2022-09-02T05:19:17.242Z,1012.65
2022-09-02T05:20:17.285Z,1012.63
2022-09-02T05:21:17.220Z,1012.64
2022-09-02T05:22:17.197Z,1012.67
2022-09-02T05:23:17.243Z,1012.71
2022-09-02T05:24:17.183Z,1012.66
2022-09-02T05:25:17.165Z,1012.68
2022-09-02T05:26:17.164Z,1012.64
2022-09-02T05:27:17.129Z,1012.67
2022-09-02T05:28:17.152Z,1012.70
2022-09-02T05:29:17.107Z,1012.62
2022-09-02T05:30:17.119Z,1012.66
2022-09-02T05:31:17.130Z,1012.65
2022-09-02T05:32:17.086Z,1012.71
2022-09-02T05:33:17.175Z,1012.71
2022-09-02T05:34:17.070Z,1012.71
2022-09-02T05:35:17.024Z,1012.71
2022-09-02T05:36:17.038Z,1012.72
2022-09-02T05:37:17.007Z,1012.72
2022-09-02T05:38:17.007Z,1012.73
2022-09-02T05:39:16.978Z,1012.73
2022-09-02T05:40:17.077Z,1012.70
2022-09-02T05:41:17.986Z,1012.71
2022-09-02T05:42:16.950Z,1012.69
2022-09-02T05:43:16.954Z,1012.70
2022-09-02T05:44:16.975Z,1012.71
2022-09-02T05:45:16.902Z,1012.74
2022-09-02T05:46:16.978Z,1012.71
2022-09-02T05:47:16.888Z,1012.75
2022-09-02T05:48:16.884Z,1012.68
2022-09-02T05:49:16.845Z,1012.68
2022-09-02T05:50:16.850Z,1012.68
2022-09-02T05:51:16.824Z,1012.70
2022-09-02T05:52:16.813Z,1012.67
2022-09-02T05:53:16.805Z,1012.70
2022-09-02T05:54:16.797Z,1012.71
2022-09-02T05:55:16.774Z,1012.71
2022-09-02T05:56:16.763Z,1012.71
2022-09-02T05:57:16.758Z,1012.71
2022-09-02T05:58:16.755Z,1012.72
2022-09-02T05:59:16.745Z,1012.76
2022-09-02T06:00:17.941Z,1012.69
2022-09-02T06:01:16.720Z,1012.71
2022-09-02T06:02:16.847Z,1012.70
2022-09-02T06:03:16.733Z,1012.75
2022-09-02T06:04:16.668Z,1012.68
2022-09-02T06:05:16.669Z,1012.69
2022-09-02T06:06:16.647Z,1012.76
2022-09-02T06:07:16.646Z,1012.76
2022-09-02T06:08:16.626Z,1012.71
2022-09-02T06:09:16.593Z,1012.76
2022-09-02T06:10:16.605Z,1012.77
2022-09-02T06:11:16.561Z,1012.76
2022-09-02T06:12:16.567Z,1012.75
2022-09-02T06:13:16.567Z,1012.72
2022-09-02T06:14:16.553Z,1012.74
2022-09-02T06:15:16.516Z,1012.72
2022-09-02T06:16:16.585Z,1012.68
2022-09-02T06:17:16.496Z,1012.70
2022-09-02T06:18:16.515Z,1012.72
2022-09-02T06:19:20.222Z,1012.67
2022-09-02T06:20:16.456Z,1012.62
2022-09-02T06:21:16.433Z,1012.69
2022-09-02T06:22:16.423Z,1012.66
2022-09-02T06:23:16.432Z,1012.65
2022-09-02T06:24:16.415Z,1012.66
2022-09-02T06:25:16.385Z,1012.72
2022-09-02T06:26:16.372Z,1012.65
2022-09-02T06:27:16.374Z,1012.70
2022-09-02T06:28:16.374Z,1012.64
2022-09-02T06:29:16.335Z,1012.64
2022-09-02T06:30:16.333Z,1012.68
2022-09-02T06:31:16.352Z,1012.61
2022-09-02T06:32:16.313Z,1012.62
2022-09-02T06:33:16.307Z,1012.69
2022-09-02T06:34:16.284Z,1012.70
2022-09-02T06:35:16.255Z,1012.69
2022-09-02T06:36:16.273Z,1012.63
2022-09-02T06:37:16.246Z,1012.70
2022-09-02T06:38:16.226Z,1012.72
2022-09-02T06:39:16.191Z,1012.64
2022-09-02T06:40:16.249Z,1012.69
2022-09-02T06:41:16.194Z,1012.65
2022-09-02T06:42:16.175Z,1012.75
2022-09-02T06:43:16.184Z,1012.64
2022-09-02T06:44:16.134Z,1012.67
2022-09-02T06:45:16.126Z,1012.64
2022-09-02T06:46:16.218Z,1012.63
2022-09-02T06:47:16.104Z,1012.63
2022-09-02T06:48:16.099Z,1012.60
2022-09-02T06:49:16.061Z,1012.60
2022-09-02T06:50:16.073Z,1012.63
2022-09-02T06:51:16.045Z,1012.67
2022-09-02T06:52:16.042Z,1012.70
2022-09-02T06:53:16.043Z,1012.65
2022-09-02T06:54:16.042Z,1012.72
2022-09-02T06:55:15.989Z,1012.66
2022-09-02T06:56:15.999Z,1012.66
2022-09-02T06:57:15.968Z,1012.63
2022-09-02T06:58:15.976Z,1012.66
2022-09-02T06:59:15.944Z,1012.66
2022-09-02T07:00:15.930Z,1012.68
2022-09-02T07:01:16.012Z,1012.67
2022-09-02T07:03:15.914Z,1012.65
2022-09-02T07:04:15.873Z,1012.62
2022-09-02T07:05:15.914Z,1012.61
2022-09-02T07:06:15.854Z,1012.69
2022-09-02T07:07:15.843Z,1012.64
2022-09-02T07:08:15.842Z,1012.71
2022-09-02T07:09:15.810Z,1012.60
2022-09-02T07:10:15.814Z,1012.55
2022-09-02T07:11:15.774Z,1012.60
2022-09-02T07:12:15.784Z,1012.55
2022-09-02T07:13:15.773Z,1012.61
2022-09-02T07:14:15.750Z,1012.58
2022-09-02T07:15:15.733Z,1012.57
2022-09-02T07:16:15.713Z,1012.61
2022-09-02T07:17:16.766Z,1012.52
2022-09-02T07:18:15.691Z,1012.55
2022-09-02T07:19:20.424Z,1012.58
2022-09-02T07:20:16.669Z,1012.60
2022-09-02T07:21:15.645Z,1012.59
2022-09-02T07:22:18.054Z,1012.51
2022-09-02T07:23:15.650Z,1012.55
2022-09-02T07:24:15.599Z,1012.53
2022-09-02T07:25:15.589Z,1012.55
2022-09-02T07:26:15.607Z,1012.52
2022-09-02T07:27:15.568Z,1012.54
2022-09-02T07:28:15.582Z,1012.50
2022-09-02T07:29:15.548Z,1012.49
2022-09-02T07:30:15.543Z,1012.53
2022-09-02T07:31:15.592Z,1012.52
2022-09-02T07:32:15.509Z,1012.53
2022-09-02T07:33:15.524Z,1012.48
2022-09-02T07:34:15.499Z,1012.53
2022-09-02T07:35:15.496Z,1012.52
2022-09-02T07:36:15.472Z,1012.50
2022-09-02T07:37:15.430Z,1012.48
2022-09-02T07:38:15.452Z,1012.49
2022-09-02T07:39:15.415Z,1012.53
2022-09-02T07:40:15.492Z,1012.47
2022-09-02T07:41:15.377Z,1012.46
2022-09-02T07:42:15.388Z,1012.43
2022-09-02T07:43:15.382Z,1012.46
2022-09-02T07:44:15.349Z,1012.44
2022-09-02T07:45:15.361Z,1012.42
2022-09-02T07:46:15.355Z,1012.47
2022-09-02T07:47:15.313Z,1012.46
2022-09-02T07:48:15.301Z,1012.46
2022-09-02T07:49:15.280Z,1012.45
2022-09-02T07:50:18.963Z,1012.45
2022-09-02T07:51:16.268Z,1012.47
2022-09-02T07:52:15.237Z,1012.44
2022-09-02T07:53:15.252Z,1012.47
2022-09-02T07:54:15.217Z,1012.41
2022-09-02T07:55:15.379Z,1012.48
2022-09-02T07:56:15.210Z,1012.40
2022-09-02T07:57:15.175Z,1012.44
2022-09-02T07:58:16.110Z,1012.43
2022-09-02T07:59:15.169Z,1012.37
2022-09-02T08:00:15.141Z,1012.47
2022-09-02T08:01:17.073Z,1012.41
2022-09-02T08:02:15.121Z,1012.42
2022-09-02T08:03:15.127Z,1012.39
2022-09-02T08:04:15.078Z,1012.39
2022-09-02T08:05:15.071Z,1012.38
2022-09-02T08:06:15.209Z,1012.39
2022-09-02T08:07:15.037Z,1012.43
2022-09-02T08:08:15.079Z,1012.35
2022-09-02T08:09:15.024Z,1012.37
2022-09-02T08:10:14.998Z,1012.36
2022-09-02T08:11:14.999Z,1012.35
2022-09-02T08:12:17.765Z,1012.33
2022-09-02T08:13:15.979Z,1012.34
2022-09-02T08:14:14.947Z,1012.37
2022-09-02T08:15:14.948Z,1012.31
2022-09-02T08:16:14.990Z,1012.39
2022-09-02T08:17:15.073Z,1012.39
2022-09-02T08:18:21.794Z,1012.39
2022-09-02T08:19:15.885Z,1012.40
2022-09-02T08:20:14.870Z,1012.42
2022-09-02T08:21:14.846Z,1012.35
2022-09-02T08:22:14.836Z,1012.34
2022-09-02T08:23:25.635Z,1012.35
2022-09-02T08:24:15.830Z,1012.35
2022-09-02T08:25:14.806Z,1012.33
2022-09-02T08:26:14.795Z,1012.36
2022-09-02T08:27:14.800Z,1012.34
2022-09-02T08:28:14.866Z,1012.34
2022-09-02T08:29:14.778Z,1012.27
2022-09-02T08:30:14.756Z,1012.28
2022-09-02T08:31:14.729Z,1012.27
2022-09-02T08:32:14.782Z,1012.23
2022-09-02T08:33:14.824Z,1012.23
2022-09-02T08:34:14.692Z,1012.19
2022-09-02T08:35:14.676Z,1012.23
2022-09-02T08:36:14.679Z,1012.25
2022-09-02T08:37:14.645Z,1012.23
2022-09-02T08:38:14.653Z,1012.27
2022-09-02T08:39:14.687Z,1012.24
2022-09-02T08:40:14.701Z,1012.21
2022-09-02T08:41:14.638Z,1012.21
2022-09-02T08:42:14.598Z,1012.22
2022-09-02T08:43:14.624Z,1012.20
2022-09-02T08:44:14.558Z,1012.18
2022-09-02T08:45:14.555Z,1012.21
2022-09-02T08:46:14.601Z,1012.24
2022-09-02T08:47:14.515Z,1012.11
2022-09-02T08:48:14.514Z,1012.18
2022-09-02T08:49:14.512Z,1012.15
2022-09-02T08:50:14.488Z,1012.10
2022-09-02T08:51:14.485Z,1012.20
2022-09-02T08:52:17.661Z,1012.09
2022-09-02T08:53:14.519Z,1012.11
2022-09-02T08:54:14.424Z,1012.09
2022-09-02T08:55:14.423Z,1012.11
2022-09-02T08:56:14.414Z,1012.15
2022-09-02T08:57:14.392Z,1012.11
2022-09-02T08:58:14.408Z,1012.08
2022-09-02T08:59:14.365Z,1012.06
2022-09-02T09:00:14.354Z,1012.10
2022-09-02T09:01:14.384Z,1012.12
2022-09-02T09:02:17.622Z,1012.10
2022-09-02T09:03:14.382Z,1012.07
2022-09-02T09:04:14.304Z,1012.11
2022-09-02T09:05:14.296Z,1012.05
2022-09-02T09:06:14.287Z,1012.09
2022-09-02T09:07:14.263Z,1012.12
2022-09-02T09:08:14.886Z,1012.08
2022-09-02T09:09:14.234Z,1012.11
2022-09-02T09:10:14.254Z,1012.12
2022-09-02T09:11:14.226Z,1012.06
2022-09-02T09:12:14.193Z,1012.07
2022-09-02T09:13:14.194Z,1012.07
2022-09-02T09:14:14.186Z,1012.06
2022-09-02T09:15:14.167Z,1012.08
2022-09-02T09:16:14.231Z,1012.06
2022-09-02T09:17:14.148Z,1012.03
2022-09-02T09:18:14.190Z,1012.04
2022-09-02T09:19:14.103Z,1011.92
2022-09-02T09:20:14.107Z,1011.96
2022-09-02T09:21:14.118Z,1011.91
2022-09-02T09:22:14.072Z,1011.91
2022-09-02T09:23:15.270Z,1011.91
2022-09-02T09:24:14.046Z,1011.95
2022-09-02T09:25:14.036Z,1011.94
2022-09-02T09:26:14.012Z,1011.91
2022-09-02T09:27:14.029Z,1011.84
2022-09-02T09:28:14.016Z,1011.84
2022-09-02T09:29:13.994Z,1011.83
2022-09-02T09:30:15.487Z,1011.81
2022-09-02T09:31:13.993Z,1011.78
2022-09-02T09:32:13.948Z,1011.79
2022-09-02T09:33:14.027Z,1011.76
2022-09-02T09:34:13.910Z,1011.77
2022-09-02T09:35:13.916Z,1011.71
2022-09-02T09:36:13.882Z,1011.77
2022-09-02T09:37:13.880Z,1011.71
2022-09-02T09:38:13.875Z,1011.70
2022-09-02T09:39:13.852Z,1011.69
2022-09-02T09:40:13.907Z,1011.70
2022-09-02T09:41:13.835Z,1011.73
2022-09-02T09:42:13.805Z,1011.66
2022-09-02T09:43:14.630Z,1011.68
2022-09-02T09:44:13.788Z,1011.65
2022-09-02T09:45:13.776Z,1011.66
2022-09-02T09:46:13.806Z,1011.65
2022-09-02T09:47:17.943Z,1011.59
2022-09-02T09:48:13.741Z,1011.59
2022-09-02T09:49:13.735Z,1011.56
2022-09-02T09:50:13.692Z,1011.59
2022-09-02T09:51:13.683Z,1011.60
2022-09-02T09:52:13.686Z,1011.62
2022-09-02T09:53:13.710Z,1011.62
2022-09-02T09:54:13.649Z,1011.52
2022-09-02T09:55:13.645Z,1011.54
2022-09-02T09:56:13.735Z,1011.54
2022-09-02T09:57:13.621Z,1011.49
2022-09-02T09:58:13.616Z,1011.52
2022-09-02T09:59:13.592Z,1011.48
2022-09-02T10:00:13.575Z,1011.50
2022-09-02T10:01:13.639Z,1011.49
2022-09-02T10:02:13.686Z,1011.53
2022-09-02T10:03:13.565Z,1011.50
2022-09-02T10:04:39.524Z,1011.51
2022-09-02T10:05:14.514Z,1011.47
2022-09-02T10:06:13.482Z,1011.47
2022-09-02T10:07:13.787Z,1011.45
2022-09-02T10:08:15.327Z,1011.52
2022-09-02T10:09:13.448Z,1011.49
2022-09-02T10:10:13.445Z,1011.45
2022-09-02T10:11:13.446Z,1011.42
2022-09-02T10:12:13.424Z,1011.48
2022-09-02T10:13:13.458Z,1011.44
2022-09-02T10:14:13.464Z,1011.42
2022-09-02T10:15:13.375Z,1011.42
2022-09-02T10:16:13.396Z,1011.47
2022-09-02T10:17:13.364Z,1011.39
2022-09-02T10:18:13.354Z,1011.33
2022-09-02T10:19:13.334Z,1011.29
2022-09-02T10:20:13.316Z,1011.44
2022-09-02T10:21:15.590Z,1011.42
2022-09-02T10:22:13.281Z,1011.43
2022-09-02T10:23:13.304Z,1011.47
2022-09-02T10:24:13.241Z,1011.39
2022-09-02T10:25:13.259Z,1011.42
2022-09-02T10:26:13.290Z,1011.41
2022-09-02T10:27:13.975Z,1011.36
2022-09-02T10:28:13.243Z,1011.33
2022-09-02T10:29:13.192Z,1011.31
2022-09-02T10:30:13.209Z,1011.35
2022-09-02T10:31:13.211Z,1011.33
2022-09-02T10:32:13.190Z,1011.34
2022-09-02T10:33:13.382Z,1011.35
2022-09-02T10:34:13.164Z,1011.37
2022-09-02T10:35:13.902Z,1011.32
2022-09-02T10:36:18.893Z,1011.33
2022-09-02T10:37:14.092Z,1011.33
2022-09-02T10:38:13.132Z,1011.26
2022-09-02T10:39:13.860Z,1011.31
2022-09-02T10:40:13.070Z,1011.28
2022-09-02T10:41:13.072Z,1011.23
2022-09-02T10:42:13.023Z,1011.19
2022-09-02T10:43:13.054Z,1011.21
2022-09-02T10:44:13.032Z,1011.18
2022-09-02T10:45:12.971Z,1011.25
2022-09-02T10:46:13.074Z,1011.28
2022-09-02T10:47:12.960Z,1011.24
2022-09-02T10:48:12.953Z,1011.19
2022-09-02T10:49:12.929Z,1011.17
2022-09-02T10:50:12.943Z,1011.23
2022-09-02T10:51:12.901Z,1011.19
2022-09-02T10:52:12.939Z,1011.21
2022-09-02T10:53:12.920Z,1011.16
2022-09-02T10:54:12.860Z,1011.15
2022-09-02T10:55:12.854Z,1011.18
2022-09-02T10:56:12.830Z,1011.11
2022-09-02T10:57:12.819Z,1011.15
2022-09-02T10:58:12.853Z,1011.17
2022-09-02T10:59:12.822Z,1011.14
2022-09-02T11:00:12.920Z,1011.15
2022-09-02T11:01:12.845Z,1011.10
2022-09-02T11:02:12.773Z,1011.13
2022-09-02T11:03:12.822Z,1011.16
2022-09-02T11:04:12.757Z,1011.04
2022-09-02T11:05:12.716Z,1011.12
2022-09-02T11:06:12.690Z,1011.05
2022-09-02T11:07:12.700Z,1011.02
2022-09-02T11:08:12.684Z,1010.98
2022-09-02T11:09:12.694Z,1011.08
2022-09-02T11:10:12.714Z,1010.99
2022-09-02T11:11:12.654Z,1011.00
2022-09-02T11:12:12.623Z,1010.96
2022-09-02T11:13:12.617Z,1010.94
2022-09-02T11:14:12.602Z,1010.89
2022-09-02T11:15:12.601Z,1010.84
2022-09-02T11:16:12.682Z,1010.95
2022-09-02T11:17:14.833Z,1010.77
2022-09-02T11:20:08.494Z,1010.92
2022-09-02T11:21:11.176Z,1010.91
2022-09-02T11:22:08.689Z,1010.94
2022-09-02T11:23:09.182Z,1010.86
2022-09-02T11:24:08.438Z,1010.89
2022-09-02T11:25:08.444Z,1010.87
2022-09-02T11:26:08.431Z,1010.80
2022-09-02T11:27:15.736Z,1010.94
2022-09-02T11:28:09.400Z,1010.90
2022-09-02T11:29:12.235Z,1010.91
2022-09-02T11:30:08.349Z,1010.87
2022-09-02T11:31:08.343Z,1010.91
2022-09-02T11:32:08.322Z,1010.81
2022-09-02T11:33:08.333Z,1010.92
2022-09-02T11:34:08.317Z,1010.87
2022-09-02T11:35:08.330Z,1010.80
2022-09-02T11:36:08.306Z,1010.74
2022-09-02T11:37:08.374Z,1010.80
2022-09-02T11:38:08.269Z,1010.75
2022-09-02T11:39:08.265Z,1010.77
2022-09-02T11:40:30.661Z,1010.67
2022-09-02T11:42:09.269Z,1010.69
2022-09-02T11:43:08.272Z,1010.68
2022-09-02T11:44:08.192Z,1010.68
2022-09-02T11:45:08.231Z,1010.62
2022-09-02T11:46:08.296Z,1010.70
2022-09-02T11:47:08.152Z,1010.81
2022-09-02T11:48:08.146Z,1010.68
2022-09-02T11:49:08.335Z,1010.72
2022-09-02T11:50:08.114Z,1010.66
2022-09-02T11:51:08.164Z,1010.63
2022-09-02T11:52:08.122Z,1010.63
2022-09-02T11:53:08.170Z,1010.71
2022-09-02T11:54:08.077Z,1010.60
2022-09-02T11:55:08.044Z,1010.65
2022-09-02T11:56:08.035Z,1010.63
2022-09-02T11:57:08.022Z,1010.61
2022-09-02T11:58:08.015Z,1010.59
2022-09-02T11:59:08.007Z,1010.64
2022-09-02T12:00:07.972Z,1010.58
2022-09-02T12:01:07.952Z,1010.59
2022-09-02T12:02:08.965Z,1010.61
2022-09-02T12:03:28.359Z,1010.61
2022-09-02T12:04:56.072Z,1010.50
2022-09-02T12:05:09.514Z,1010.55
2022-09-02T12:06:08.088Z,1010.62
2022-09-02T12:07:09.632Z,1010.53
2022-09-02T12:08:07.899Z,1010.54
2022-09-02T12:09:07.902Z,1010.60